Time;durP1;ratioP1;P1;durP2;ratioP2;P2;SDS_P1;SDS_P2;PMS_P1;PMS_P2;Temp;Humidity;BMP_temperature;BMP_pressure;BME280_temperature;BME280_humidity;BME280_pressure;Samples;Min_cycle;Max_cycle;Signal;HPM_P1;HPM_P2
2022/12/19 00:00:41;;;;;;;53.88;20.50;;;;;;;;;;5066635;28;20049;-78
2022/12/19 00:03:07;;;;;;;54.42;19.38;;;;;;;;;;5059491;28;20053;-78
2022/12/19 00:05:37;;;;;;;49.88;18.75;;;;;;;;;;5062357;28;20529;-78
2022/12/19 00:08:13;;;;;;;56.28;20.85;;;;;;;;;;5050371;28;20060;-78
2022/12/19 00:10:43;;;;;;;51.42;19.35;;;;;;;;;;5067050;28;20188;-78
2022/12/19 00:13:09;;;;;;;50.70;19.10;;;;;;;;;;5067643;28;20140;-78
2022/12/19 00:15:35;;;;;;;54.88;20.40;;;;;;;;;;5068885;28;20514;-78
2022/12/19 00:18:02;;;;;;;54.50;20.02;;;;;;;;;;5069389;28;20053;-78
2022/12/19 00:20:28;;;;;;;56.00;21.33;;;;;;;;;;5065794;28;20052;-78
2022/12/19 00:22:54;;;;;;;58.45;20.60;;;;;;;;;;5067886;28;20051;-78
2022/12/19 00:25:21;;;;;;;56.08;19.58;;;;;;;;;;5065754;28;20060;-78
2022/12/19 00:27:48;;;;;;;55.83;20.77;;;;;;;;;;5069415;28;20454;-79
2022/12/19 00:30:15;;;;;;;59.13;21.65;;;;;;;;;;5069340;28;20049;-78
2022/12/19 00:32:42;;;;;;;53.65;20.25;;;;;;;;;;5047175;28;20061;-78
2022/12/19 00:35:08;;;;;;;55.88;20.58;;;;;;;;;;5068549;28;20139;-78
2022/12/19 00:37:34;;;;;;;57.92;20.55;;;;;;;;;;5069325;28;20053;-78
2022/12/19 00:40:04;;;;;;;51.75;20.85;;;;;;;;;;5067369;28;20508;-78
2022/12/19 00:42:30;;;;;;;56.85;20.20;;;;;;;;;;5064793;28;20650;-78
2022/12/19 00:44:57;;;;;;;60.67;20.77;;;;;;;;;;5042323;28;20926;-79
2022/12/19 00:47:23;;;;;;;66.95;22.48;;;;;;;;;;5051223;28;20049;-78
2022/12/19 00:49:49;;;;;;;53.83;20.95;;;;;;;;;;5069189;28;20114;-79
2022/12/19 00:52:16;;;;;;;54.58;19.83;;;;;;;;;;5066445;28;20056;-79
2022/12/19 00:54:42;;;;;;;56.80;19.75;;;;;;;;;;5060819;28;20052;-79
2022/12/19 00:57:09;;;;;;;49.55;19.83;;;;;;;;;;5067865;28;20259;-79
2022/12/19 00:59:35;;;;;;;54.47;20.48;;;;;;;;;;5068915;28;20045;-78
2022/12/19 01:02:01;;;;;;;59.13;20.65;;;;;;;;;;5069127;28;20377;-78
2022/12/19 01:04:28;;;;;;;48.42;19.75;;;;;;;;;;5067057;28;20053;-79
2022/12/19 01:06:57;;;;;;;52.47;19.38;;;;;;;;;;5050648;28;20057;-79
2022/12/19 01:09:27;;;;;;;62.15;20.05;;;;;;;;;;5068767;28;20057;-79
2022/12/19 01:14:38;;;;;;;57.78;19.55;;;;;;;;;;5067148;28;20076;-79
2022/12/19 01:17:05;;;;;;;57.58;20.90;;;;;;;;;;5068862;28;20056;-78
2022/12/19 01:19:31;;;;;;;61.80;21.30;;;;;;;;;;5068091;28;20053;-78
2022/12/19 01:21:57;;;;;;;60.65;19.98;;;;;;;;;;5066781;28;20087;-78
2022/12/19 01:24:25;;;;;;;56.40;19.30;;;;;;;;;;5068632;28;20057;-78
2022/12/19 01:26:51;;;;;;;67.30;22.08;;;;;;;;;;5068710;28;20763;-78
2022/12/19 01:29:17;;;;;;;68.40;23.10;;;;;;;;;;5070157;28;20052;-79
2022/12/19 01:31:44;;;;;;;61.92;20.20;;;;;;;;;;5068248;28;20061;-79
2022/12/19 01:34:10;;;;;;;61.40;21.35;;;;;;;;;;5068286;28;20057;-79
2022/12/19 01:36:37;;;;;;;62.55;22.73;;;;;;;;;;5068745;28;20049;-78
2022/12/19 01:39:05;;;;;;;68.15;22.10;;;;;;;;;;5068859;28;20053;-78
2022/12/19 01:41:31;;;;;;;75.82;22.52;;;;;;;;;;5068281;28;20144;-79
2022/12/19 01:44:02;;;;;;;68.63;22.92;;;;;;;;;;5067255;28;20140;-78
2022/12/19 01:46:32;;;;;;;74.85;23.38;;;;;;;;;;5068206;28;20044;-78
2022/12/19 01:48:59;;;;;;;71.65;24.38;;;;;;;;;;5068289;28;20084;-78
2022/12/19 01:51:28;;;;;;;69.07;24.50;;;;;;;;;;5066331;28;20909;-78
2022/12/19 01:54:00;;;;;;;73.32;24.63;;;;;;;;;;5057339;28;20052;-78
2022/12/19 01:56:29;;;;;;;75.72;24.05;;;;;;;;;;5048426;28;20188;-78
2022/12/19 01:58:57;;;;;;;73.38;22.90;;;;;;;;;;5048359;28;20053;-78
2022/12/19 02:01:32;;;;;;;80.32;23.27;;;;;;;;;;5048315;28;20061;-78
2022/12/19 02:04:00;;;;;;;86.68;23.48;;;;;;;;;;5064939;28;20108;-78
2022/12/19 02:06:27;;;;;;;90.30;24.73;;;;;;;;;;5046117;28;20504;-78
2022/12/19 02:08:54;;;;;;;78.25;23.23;;;;;;;;;;5062300;28;20085;-79
2022/12/19 02:11:21;;;;;;;72.15;23.02;;;;;;;;;;5067960;28;20144;-78
2022/12/19 02:13:47;;;;;;;87.18;24.60;;;;;;;;;;5064934;28;20080;-78
2022/12/19 02:16:32;;;;;;;84.13;23.92;;;;;;;;;;5050958;28;20049;-78
2022/12/19 02:19:08;;;;;;;81.85;24.45;;;;;;;;;;5066485;28;20599;-78
2022/12/19 02:21:40;;;;;;;77.00;23.65;;;;;;;;;;5067210;28;20114;-78
2022/12/19 02:24:18;;;;;;;73.13;21.00;;;;;;;;;;5068770;28;20056;-78
2022/12/19 02:27:04;;;;;;;62.50;21.80;;;;;;;;;;5066252;28;20053;-78
2022/12/19 02:29:30;;;;;;;69.65;20.83;;;;;;;;;;5048812;28;20045;-78
2022/12/19 02:31:59;;;;;;;70.60;21.55;;;;;;;;;;5048658;28;21599;-79
2022/12/19 02:34:30;;;;;;;66.60;22.35;;;;;;;;;;5065362;28;20364;-78
2022/12/19 02:37:04;;;;;;;74.60;21.67;;;;;;;;;;5063522;28;20437;-78
2022/12/19 02:39:34;;;;;;;68.90;22.05;;;;;;;;;;5049681;28;20058;-79
2022/12/19 02:42:02;;;;;;;81.55;23.40;;;;;;;;;;5050077;28;20057;-79
2022/12/19 02:44:44;;;;;;;86.65;22.98;;;;;;;;;;5067751;28;20068;-79
2022/12/19 02:47:11;;;;;;;79.78;23.17;;;;;;;;;;5067102;28;20257;-78
2022/12/19 02:49:37;;;;;;;85.38;24.30;;;;;;;;;;5069694;28;20913;-79
2022/12/19 02:52:09;;;;;;;76.63;22.98;;;;;;;;;;5064846;28;20064;-79
2022/12/19 02:54:36;;;;;;;79.75;22.33;;;;;;;;;;5051353;28;20856;-79
2022/12/19 02:57:11;;;;;;;70.60;21.95;;;;;;;;;;5068067;28;20572;-79
2022/12/19 02:59:40;;;;;;;80.13;22.75;;;;;;;;;;5070657;28;20080;-79
2022/12/19 03:02:20;;;;;;;77.70;22.77;;;;;;;;;;5068817;28;20945;-78
2022/12/19 03:05:06;;;;;;;75.43;22.17;;;;;;;;;;5049442;28;20063;-79
2022/12/19 03:07:35;;;;;;;68.88;22.17;;;;;;;;;;5059498;28;20057;-79
2022/12/19 03:10:22;;;;;;;75.63;21.23;;;;;;;;;;5066750;28;20049;-79
2022/12/19 03:13:03;;;;;;;78.68;22.30;;;;;;;;;;5068007;28;20066;-79
2022/12/19 03:15:30;;;;;;;70.15;21.23;;;;;;;;;;5069803;28;20057;-78
2022/12/19 03:17:58;;;;;;;75.97;22.48;;;;;;;;;;5068237;28;20128;-79
2022/12/19 03:20:24;;;;;;;77.47;22.15;;;;;;;;;;5070242;28;20065;-78
2022/12/19 03:22:51;;;;;;;84.60;22.65;;;;;;;;;;5071626;28;20049;-78
2022/12/19 03:25:19;;;;;;;76.05;20.55;;;;;;;;;;5073221;28;20132;-78
2022/12/19 03:27:47;;;;;;;77.03;22.15;;;;;;;;;;5071359;28;20033;-78
2022/12/19 03:30:14;;;;;;;82.10;22.52;;;;;;;;;;5072997;28;20507;-79
2022/12/19 03:32:41;;;;;;;82.80;20.75;;;;;;;;;;5054766;28;20057;-79
2022/12/19 03:35:15;;;;;;;70.43;20.20;;;;;;;;;;5050359;28;20603;-78
2022/12/19 03:37:43;;;;;;;85.30;21.95;;;;;;;;;;5052931;28;20095;-78
2022/12/19 03:40:15;;;;;;;76.68;20.73;;;;;;;;;;5073070;28;20061;-78
2022/12/19 03:45:36;;;;;;;71.85;20.35;;;;;;;;;;5071767;28;20229;-78
2022/12/19 03:48:06;;;;;;;72.78;20.10;;;;;;;;;;5055055;28;20853;-78
2022/12/19 03:50:40;;;;;;;61.50;19.80;;;;;;;;;;5073021;28;20092;-78
2022/12/19 03:53:25;;;;;;;61.58;20.00;;;;;;;;;;5061558;28;20053;-78
2022/12/19 03:56:11;;;;;;;68.75;19.77;;;;;;;;;;5065801;28;20081;-78
2022/12/19 03:58:40;;;;;;;59.75;20.00;;;;;;;;;;5062205;28;20080;-79
2022/12/19 04:01:08;;;;;;;66.32;19.95;;;;;;;;;;5071988;28;20533;-79
2022/12/19 04:03:34;;;;;;;61.38;18.50;;;;;;;;;;5055792;28;20042;-78
2022/12/19 04:06:02;;;;;;;57.28;18.90;;;;;;;;;;5070973;28;20072;-79
2022/12/19 04:08:29;;;;;;;54.80;17.88;;;;;;;;;;5074908;28;20068;-79
2022/12/19 04:11:08;;;;;;;63.20;18.30;;;;;;;;;;5074483;28;20652;-79
2022/12/19 04:13:37;;;;;;;63.67;19.02;;;;;;;;;;5062710;28;20056;-79
2022/12/19 04:16:15;;;;;;;60.45;18.38;;;;;;;;;;5070250;28;20217;-78
2022/12/19 04:18:46;;;;;;;68.85;18.67;;;;;;;;;;5072738;28;20048;-78
2022/12/19 04:21:16;;;;;;;68.90;19.15;;;;;;;;;;5072638;28;20061;-79
2022/12/19 04:23:46;;;;;;;68.77;19.23;;;;;;;;;;5068982;28;20064;-79
2022/12/19 04:26:13;;;;;;;64.90;18.65;;;;;;;;;;5054694;28;20268;-79
2022/12/19 04:28:45;;;;;;;62.53;18.08;;;;;;;;;;5070444;28;20064;-80
2022/12/19 04:31:12;;;;;;;57.10;17.63;;;;;;;;;;5071721;28;20084;-79
2022/12/19 04:33:39;;;;;;;52.58;16.80;;;;;;;;;;5053690;28;20057;-78
2022/12/19 04:36:05;;;;;;;58.45;18.05;;;;;;;;;;5070615;28;20053;-78
2022/12/19 04:38:32;;;;;;;57.17;15.95;;;;;;;;;;5070959;28;20053;-78
2022/12/19 04:40:58;;;;;;;59.92;15.73;;;;;;;;;;5070603;28;20822;-78
2022/12/19 04:43:25;;;;;;;61.00;17.30;;;;;;;;;;5068784;28;20049;-78
2022/12/19 04:45:51;;;;;;;66.55;18.02;;;;;;;;;;5049313;28;20140;-78
2022/12/19 04:48:22;;;;;;;75.20;20.20;;;;;;;;;;5061304;28;20063;-78
2022/12/19 04:50:49;;;;;;;64.63;19.35;;;;;;;;;;5072527;28;20114;-78
2022/12/19 04:53:15;;;;;;;69.80;18.75;;;;;;;;;;5069374;28;20140;-78
2022/12/19 04:55:43;;;;;;;57.55;17.77;;;;;;;;;;5068053;28;20279;-78
2022/12/19 04:58:10;;;;;;;71.93;18.95;;;;;;;;;;5049419;28;20120;-78
2022/12/19 05:00:36;;;;;;;84.03;18.60;;;;;;;;;;5069090;28;20063;-78
2022/12/19 05:03:02;;;;;;;64.82;18.83;;;;;;;;;;5048286;28;20050;-78
2022/12/19 05:05:29;;;;;;;72.35;18.42;;;;;;;;;;5067771;28;20083;-78
2022/12/19 05:07:56;;;;;;;61.85;17.05;;;;;;;;;;5071039;28;20063;-78
2022/12/19 05:10:22;;;;;;;57.58;16.98;;;;;;;;;;5069857;28;20072;-78
2022/12/19 05:12:49;;;;;;;61.85;17.88;;;;;;;;;;5068258;28;20424;-78
2022/12/19 05:15:15;;;;;;;67.85;17.40;;;;;;;;;;5064631;28;20139;-78
2022/12/19 05:17:42;;;;;;;55.20;15.52;;;;;;;;;;5048550;28;20092;-78
2022/12/19 05:20:09;;;;;;;57.53;16.80;;;;;;;;;;5067574;28;20131;-79
2022/12/19 05:22:35;;;;;;;47.20;14.88;;;;;;;;;;5066691;28;20084;-78
2022/12/19 05:25:02;;;;;;;54.50;15.27;;;;;;;;;;5064699;28;20053;-78
2022/12/19 05:27:28;;;;;;;57.80;15.55;;;;;;;;;;5070999;28;20041;-80
2022/12/19 05:29:54;;;;;;;52.67;16.30;;;;;;;;;;5073281;28;20042;-80
2022/12/19 05:32:21;;;;;;;55.17;15.90;;;;;;;;;;5073609;28;20141;-80
2022/12/19 05:34:47;;;;;;;61.75;16.17;;;;;;;;;;5054862;28;20061;-80
2022/12/19 05:37:13;;;;;;;63.42;17.08;;;;;;;;;;5073010;28;20049;-80
2022/12/19 05:39:40;;;;;;;60.35;16.88;;;;;;;;;;5072684;28;20056;-80
2022/12/19 05:42:06;;;;;;;57.13;16.90;;;;;;;;;;5056128;28;20053;-80
2022/12/19 05:44:37;;;;;;;61.75;16.58;;;;;;;;;;5071890;28;20058;-80
2022/12/19 05:47:04;;;;;;;56.05;15.95;;;;;;;;;;5071824;28;20052;-79
2022/12/19 05:49:30;;;;;;;62.28;17.05;;;;;;;;;;5062309;28;20410;-80
2022/12/19 05:51:57;;;;;;;56.97;16.45;;;;;;;;;;5075540;28;20056;-80
2022/12/19 05:54:24;;;;;;;70.63;16.75;;;;;;;;;;5074992;28;20057;-80
2022/12/19 05:56:50;;;;;;;53.40;15.20;;;;;;;;;;5075489;28;20782;-80
2022/12/19 05:59:17;;;;;;;50.65;14.90;;;;;;;;;;5055396;28;20060;-80
2022/12/19 06:01:43;;;;;;;55.70;15.32;;;;;;;;;;5056508;28;20067;-81
2022/12/19 06:04:10;;;;;;;54.95;14.93;;;;;;;;;;5057339;28;20496;-80
2022/12/19 06:06:36;;;;;;;50.33;15.18;;;;;;;;;;5073789;28;20103;-80
2022/12/19 06:09:03;;;;;;;35.83;11.35;;;;;;;;;;5064909;28;20052;-81
2022/12/19 06:11:29;;;;;;;47.50;13.48;;;;;;;;;;5058585;28;20044;-80
2022/12/19 06:13:56;;;;;;;46.67;14.73;;;;;;;;;;5054331;28;20128;-80
2022/12/19 06:16:22;;;;;;;44.47;13.18;;;;;;;;;;5060772;28;20072;-80
2022/12/19 06:18:49;;;;;;;46.20;13.75;;;;;;;;;;5074149;28;20048;-80
2022/12/19 06:21:17;;;;;;;52.40;14.80;;;;;;;;;;5054712;28;20057;-80
2022/12/19 06:23:44;;;;;;;53.03;14.88;;;;;;;;;;5075032;28;20052;-80
2022/12/19 06:26:12;;;;;;;50.60;14.43;;;;;;;;;;5074383;28;20065;-80
2022/12/19 06:28:44;;;;;;;45.58;13.05;;;;;;;;;;5065452;28;20154;-81
2022/12/19 06:31:11;;;;;;;42.28;13.40;;;;;;;;;;5074928;28;20057;-81
2022/12/19 06:33:37;;;;;;;43.28;13.60;;;;;;;;;;5060092;28;20063;-80
2022/12/19 06:36:05;;;;;;;40.65;13.85;;;;;;;;;;5074790;28;20053;-80
2022/12/19 06:38:32;;;;;;;33.63;11.55;;;;;;;;;;5073152;28;20052;-81
2022/12/19 06:43:46;;;;;;;46.20;13.30;;;;;;;;;;5076243;28;20101;-81
2022/12/19 06:46:18;;;;;;;43.67;12.40;;;;;;;;;;5075752;28;20978;-81
2022/12/19 06:48:45;;;;;;;41.33;14.20;;;;;;;;;;5057036;28;20064;-81
2022/12/19 06:51:11;;;;;;;51.20;14.90;;;;;;;;;;5077604;28;20064;-81
2022/12/19 06:53:37;;;;;;;34.17;11.73;;;;;;;;;;5075669;28;20520;-81
2022/12/19 06:56:04;;;;;;;45.10;13.48;;;;;;;;;;5057973;28;20065;-81
2022/12/19 06:58:31;;;;;;;48.47;14.90;;;;;;;;;;5078168;28;20068;-81
2022/12/19 07:00:58;;;;;;;47.15;13.50;;;;;;;;;;5078202;28;20061;-81
2022/12/19 07:03:27;;;;;;;48.47;14.60;;;;;;;;;;5079275;28;20053;-81
2022/12/19 07:05:54;;;;;;;53.95;15.00;;;;;;;;;;5061571;28;20087;-81
2022/12/19 07:08:20;;;;;;;43.65;13.35;;;;;;;;;;5075925;28;20068;-81
2022/12/19 07:10:47;;;;;;;49.35;14.52;;;;;;;;;;5076944;28;20075;-81
2022/12/19 07:13:13;;;;;;;44.40;14.35;;;;;;;;;;5074943;28;20079;-80
2022/12/19 07:15:40;;;;;;;45.20;15.45;;;;;;;;;;5075023;28;20056;-79
2022/12/19 07:18:07;;;;;;;50.55;14.77;;;;;;;;;;5073337;28;20079;-79
2022/12/19 07:20:35;;;;;;;36.15;13.38;;;;;;;;;;5056733;28;20049;-79
2022/12/19 07:23:08;;;;;;;33.28;12.70;;;;;;;;;;5073171;28;20048;-79
2022/12/19 07:25:36;;;;;;;38.85;13.77;;;;;;;;;;5075328;28;20099;-80
2022/12/19 07:28:02;;;;;;;36.72;13.75;;;;;;;;;;5073687;28;20053;-80
2022/12/19 07:30:29;;;;;;;33.28;12.07;;;;;;;;;;5074808;28;20049;-80
2022/12/19 07:32:55;;;;;;;36.85;12.63;;;;;;;;;;5075435;28;20593;-80
2022/12/19 07:35:22;;;;;;;36.97;12.68;;;;;;;;;;5073293;28;20060;-80
2022/12/19 07:37:48;;;;;;;35.17;12.63;;;;;;;;;;5051010;28;20466;-80
2022/12/19 07:40:16;;;;;;;31.15;12.60;;;;;;;;;;5070225;28;20489;-80
2022/12/19 07:42:43;;;;;;;33.78;12.60;;;;;;;;;;5072824;28;20052;-80
2022/12/19 07:45:09;;;;;;;23.63;10.15;;;;;;;;;;5071330;28;20064;-80
2022/12/19 07:47:36;;;;;;;26.70;11.25;;;;;;;;;;5055718;28;20989;-80
2022/12/19 07:50:02;;;;;;;29.65;11.82;;;;;;;;;;5069092;28;20060;-80
2022/12/19 07:52:29;;;;;;;33.83;12.75;;;;;;;;;;5072491;28;20433;-79
2022/12/19 07:54:55;;;;;;;32.50;12.50;;;;;;;;;;5073230;28;20055;-80
2022/12/19 07:57:21;;;;;;;32.20;11.85;;;;;;;;;;5059082;28;20072;-79
2022/12/19 07:59:48;;;;;;;30.17;11.63;;;;;;;;;;5073587;28;20065;-79
2022/12/19 08:02:14;;;;;;;30.52;11.57;;;;;;;;;;5072940;28;20057;-79
2022/12/19 08:04:41;;;;;;;32.22;11.95;;;;;;;;;;5074577;28;20057;-80
2022/12/19 08:07:07;;;;;;;32.13;11.38;;;;;;;;;;5074820;28;20061;-80
2022/12/19 08:09:34;;;;;;;26.92;11.13;;;;;;;;;;5081885;28;20083;-80
2022/12/19 08:12:00;;;;;;;32.67;11.95;;;;;;;;;;5079628;28;20834;-80
2022/12/19 08:14:27;;;;;;;24.60;10.52;;;;;;;;;;5085954;28;20096;-80
2022/12/19 08:16:53;;;;;;;30.15;11.82;;;;;;;;;;5083912;28;20103;-80
2022/12/19 08:19:39;;;;;;;22.52;9.43;;;;;;;;;;5075744;28;20095;-79
2022/12/19 08:22:06;;;;;;;23.10;9.80;;;;;;;;;;5088934;28;20100;-79
2022/12/19 08:24:33;;;;;;;26.50;10.32;;;;;;;;;;5086753;28;20073;-80
2022/12/19 08:26:59;;;;;;;27.33;10.98;;;;;;;;;;5087137;28;20057;-80
2022/12/19 08:29:25;;;;;;;28.80;10.90;;;;;;;;;;5082516;28;20523;-80
2022/12/19 08:31:52;;;;;;;26.02;11.18;;;;;;;;;;5087652;28;20053;-80
2022/12/19 08:34:18;;;;;;;25.48;11.45;;;;;;;;;;5088192;28;20037;-80
2022/12/19 08:36:44;;;;;;;28.83;11.25;;;;;;;;;;5091013;28;20045;-80
2022/12/19 08:39:11;;;;;;;26.02;10.63;;;;;;;;;;5089847;28;20053;-80
2022/12/19 08:41:37;;;;;;;30.75;11.00;;;;;;;;;;5088907;28;20103;-80
2022/12/19 08:44:04;;;;;;;28.65;11.65;;;;;;;;;;5086729;28;20041;-80
2022/12/19 08:46:30;;;;;;;26.05;11.63;;;;;;;;;;5070977;28;20170;-80
2022/12/19 08:48:57;;;;;;;26.38;11.02;;;;;;;;;;5087842;28;21004;-81
2022/12/19 08:51:25;;;;;;;22.48;9.98;;;;;;;;;;5086093;28;20055;-80
2022/12/19 08:53:52;;;;;;;24.05;9.68;;;;;;;;;;5086082;28;20080;-80
2022/12/19 08:56:19;;;;;;;23.20;9.85;;;;;;;;;;5096198;28;20053;-80
2022/12/19 08:58:45;;;;;;;21.98;9.90;;;;;;;;;;5084800;28;21446;-80
2022/12/19 09:01:17;;;;;;;21.98;9.23;;;;;;;;;;5087786;28;20068;-81
2022/12/19 09:03:44;;;;;;;24.05;9.60;;;;;;;;;;5067286;28;20076;-80
2022/12/19 09:06:31;;;;;;;20.85;9.38;;;;;;;;;;5092175;28;20061;-80
2022/12/19 09:08:58;;;;;;;18.20;8.07;;;;;;;;;;5064933;28;20042;-80
2022/12/19 09:11:25;;;;;;;24.13;9.48;;;;;;;;;;5071289;28;20052;-81
2022/12/19 09:13:53;;;;;;;21.25;9.18;;;;;;;;;;5086829;28;20097;-81
2022/12/19 09:16:20;;;;;;;21.90;9.15;;;;;;;;;;5084225;28;20049;-80
2022/12/19 09:18:48;;;;;;;24.23;9.07;;;;;;;;;;5079659;28;20102;-81
2022/12/19 09:21:16;;;;;;;25.65;9.43;;;;;;;;;;5085751;28;20033;-81
2022/12/19 09:23:42;;;;;;;20.48;8.93;;;;;;;;;;5076416;28;20591;-81
2022/12/19 09:26:12;;;;;;;22.65;9.13;;;;;;;;;;5064341;28;20135;-82
2022/12/19 09:28:39;;;;;;;21.23;8.65;;;;;;;;;;5069646;28;20668;-83
2022/12/19 09:31:07;;;;;;;20.33;8.65;;;;;;;;;;5062475;28;20115;-81
2022/12/19 09:33:34;;;;;;;23.10;9.40;;;;;;;;;;5065934;28;20157;-82
2022/12/19 09:36:11;;;;;;;21.10;8.32;;;;;;;;;;5069712;28;20307;-81
2022/12/19 09:38:37;;;;;;;22.45;8.73;;;;;;;;;;5069699;28;20084;-83
2022/12/19 09:41:04;;;;;;;21.90;9.05;;;;;;;;;;5052309;28;20868;-83
2022/12/19 09:43:30;;;;;;;17.35;8.20;;;;;;;;;;5072186;28;20060;-83
2022/12/19 09:46:15;;;;;;;18.42;8.38;;;;;;;;;;5068744;28;20045;-83
2022/12/19 09:48:42;;;;;;;20.48;8.77;;;;;;;;;;5048665;28;20059;-83
2022/12/19 09:51:13;;;;;;;16.58;8.32;;;;;;;;;;5071530;28;20064;-83
2022/12/19 09:53:46;;;;;;;20.52;8.18;;;;;;;;;;5069904;28;20126;-83
2022/12/19 09:56:21;;;;;;;18.50;7.85;;;;;;;;;;5069632;28;20045;-83
2022/12/19 09:58:52;;;;;;;19.10;8.25;;;;;;;;;;5053026;28;20061;-83
2022/12/19 10:01:20;;;;;;;17.73;7.75;;;;;;;;;;5073155;28;20045;-83
2022/12/19 10:03:53;;;;;;;17.95;8.45;;;;;;;;;;5069894;28;20045;-84
2022/12/19 10:06:20;;;;;;;20.08;8.25;;;;;;;;;;5063438;28;20062;-84
2022/12/19 10:09:15;;;;;;;20.85;8.07;;;;;;;;;;5069673;28;20056;-83
2022/12/19 10:12:20;;;;;;;17.13;7.95;;;;;;;;;;5071005;28;20500;-83
2022/12/19 10:15:09;;;;;;;19.67;8.45;;;;;;;;;;5067431;28;20057;-83
2022/12/19 10:17:56;;;;;;;21.95;8.45;;;;;;;;;;5070766;28;20067;-83
2022/12/19 10:20:25;;;;;;;20.50;8.27;;;;;;;;;;5070534;28;20147;-83
2022/12/19 10:22:51;;;;;;;16.20;7.68;;;;;;;;;;5067470;28;20866;-85
2022/12/19 10:25:27;;;;;;;16.85;8.10;;;;;;;;;;5068766;28;20060;-82
2022/12/19 10:28:00;;;;;;;18.63;8.48;;;;;;;;;;5076793;28;20087;-83
2022/12/19 10:30:28;;;;;;;16.00;8.18;;;;;;;;;;5069899;28;20063;-83
2022/12/19 10:33:15;;;;;;;18.55;8.60;;;;;;;;;;5072594;28;20059;-83
2022/12/19 10:35:50;;;;;;;17.63;7.50;;;;;;;;;;5071845;28;20142;-84
2022/12/19 10:38:22;;;;;;;14.05;6.80;;;;;;;;;;5054731;28;20132;-83
2022/12/19 10:40:48;;;;;;;17.17;7.68;;;;;;;;;;5069192;28;20424;-84
2022/12/19 10:43:21;;;;;;;17.63;7.68;;;;;;;;;;5053275;28;20067;-84
2022/12/19 10:46:01;;;;;;;15.80;7.85;;;;;;;;;;5071343;28;20119;-83
2022/12/19 10:48:28;;;;;;;14.50;7.47;;;;;;;;;;5054006;28;20155;-83
2022/12/19 10:50:57;;;;;;;19.00;7.93;;;;;;;;;;5045149;28;20136;-84
2022/12/19 10:53:31;;;;;;;19.20;7.30;;;;;;;;;;5071112;28;20577;-83
2022/12/19 10:56:10;;;;;;;16.00;7.55;;;;;;;;;;5071525;28;20088;-83
2022/12/19 10:58:36;;;;;;;15.30;7.43;;;;;;;;;;5073629;28;20045;-82
2022/12/19 11:01:13;;;;;;;19.40;9.75;;;;;;;;;;5059980;28;20064;-84
2022/12/19 11:03:44;;;;;;;17.88;6.25;;;;;;;;;;5083433;28;20055;-83
2022/12/19 11:06:31;;;;;;;15.15;8.35;;;;;;;;;;5053068;28;20041;-83
2022/12/19 11:09:15;;;;;;;13.38;7.22;;;;;;;;;;5066992;28;20060;-84
2022/12/19 11:11:41;;;;;;;14.02;6.82;;;;;;;;;;5070769;28;20080;-83
2022/12/19 11:14:29;;;;;;;14.77;6.63;;;;;;;;;;5066920;28;20068;-84
2022/12/19 11:17:41;;;;;;;13.25;7.15;;;;;;;;;;5075750;28;20053;-84
2022/12/19 11:20:28;;;;;;;17.05;6.88;;;;;;;;;;5081272;28;20045;-85
2022/12/19 11:23:14;;;;;;;16.52;8.20;;;;;;;;;;5070574;28;20163;-83
2022/12/19 11:26:03;;;;;;;14.88;7.63;;;;;;;;;;5066719;28;20130;-84
2022/12/19 11:28:50;;;;;;;15.80;7.10;;;;;;;;;;5055554;28;20050;-83
2022/12/19 11:31:36;;;;;;;15.63;6.65;;;;;;;;;;5068611;28;20569;-85
2022/12/19 11:34:23;;;;;;;11.52;5.95;;;;;;;;;;5069676;28;20037;-85
2022/12/19 11:37:11;;;;;;;12.50;6.50;;;;;;;;;;5069818;28;20057;-84
2022/12/19 11:39:46;;;;;;;14.63;7.40;;;;;;;;;;5070910;28;20055;-85
2022/12/19 11:42:18;;;;;;;12.77;6.88;;;;;;;;;;5071222;28;20437;-84
2022/12/19 11:44:49;;;;;;;13.77;6.00;;;;;;;;;;5071532;28;20392;-84
2022/12/19 11:47:26;;;;;;;13.57;6.93;;;;;;;;;;5053805;28;20535;-83
2022/12/19 11:49:57;;;;;;;11.55;6.65;;;;;;;;;;5077486;28;20279;-84
2022/12/19 11:52:41;;;;;;;13.50;7.22;;;;;;;;;;5073279;28;20052;-85
2022/12/19 11:55:42;;;;;;;14.30;6.43;;;;;;;;;;5068444;28;20464;-83
2022/12/19 11:58:10;;;;;;;12.95;6.38;;;;;;;;;;5069727;28;20064;-84
2022/12/19 12:00:39;;;;;;;15.70;6.50;;;;;;;;;;5060093;28;20056;-85
2022/12/19 12:03:18;;;;;;;12.85;6.18;;;;;;;;;;5076818;28;20136;-84
2022/12/19 12:05:46;;;;;;;12.97;6.60;;;;;;;;;;5037183;28;20049;-82
2022/12/19 12:08:31;;;;;;;11.55;6.18;;;;;;;;;;5055046;28;20373;-82
2022/12/19 12:11:17;;;;;;;13.50;5.70;;;;;;;;;;5085392;28;20059;-82
2022/12/19 12:14:13;;;;;;;8.68;5.20;;;;;;;;;;5056394;28;20057;-83
2022/12/19 12:17:19;;;;;;;22.13;11.20;;;;;;;;;;5052169;28;20156;-83
2022/12/19 12:20:15;;;;;;;14.65;6.57;;;;;;;;;;5050958;28;20111;-83
2022/12/19 12:23:20;;;;;;;16.17;8.10;;;;;;;;;;5061562;28;20061;-83
2022/12/19 12:26:12;;;;;;;16.58;6.22;;;;;;;;;;5054640;28;20603;-82
2022/12/19 12:29:05;;;;;;;11.57;5.47;;;;;;;;;;5073581;28;20057;-83
2022/12/19 12:32:04;;;;;;;11.52;5.80;;;;;;;;;;5073714;28;20053;-83
2022/12/19 12:35:03;;;;;;;11.88;5.78;;;;;;;;;;5068318;28;20109;-83
2022/12/19 12:38:02;;;;;;;15.45;5.10;;;;;;;;;;5071952;28;20060;-83
2022/12/19 12:40:49;;;;;;;13.40;5.78;;;;;;;;;;5057589;28;20079;-83
2022/12/19 12:43:24;;;;;;;8.05;4.65;;;;;;;;;;5072206;28;20101;-83
2022/12/19 12:45:51;;;;;;;9.88;5.05;;;;;;;;;;5072137;28;20053;-84
2022/12/19 12:48:23;;;;;;;10.88;5.35;;;;;;;;;;5055022;28;20049;-83
2022/12/19 12:50:52;;;;;;;9.77;4.90;;;;;;;;;;5071048;28;20099;-83
2022/12/19 12:53:23;;;;;;;8.45;4.45;;;;;;;;;;5054168;28;20075;-82
2022/12/19 12:55:51;;;;;;;12.50;4.93;;;;;;;;;;5067196;28;20849;-82
2022/12/19 12:58:36;;;;;;;15.90;5.25;;;;;;;;;;5060348;28;20065;-83
2022/12/19 13:01:07;;;;;;;8.38;4.78;;;;;;;;;;5072676;28;20479;-82
2022/12/19 13:03:34;;;;;;;9.10;4.63;;;;;;;;;;5078743;28;20051;-83
2022/12/19 13:06:05;;;;;;;8.52;4.82;;;;;;;;;;5071370;28;20057;-82
2022/12/19 13:08:58;;;;;;;8.73;4.20;;;;;;;;;;5071041;28;20052;-82
2022/12/19 13:14:28;;;;;;;9.98;4.72;;;;;;;;;;5068122;28;20879;-81
2022/12/19 13:16:55;;;;;;;8.30;4.50;;;;;;;;;;5059420;28;20504;-82
2022/12/19 13:19:21;;;;;;;10.77;4.50;;;;;;;;;;5069007;28;20045;-82
2022/12/19 13:22:02;;;;;;;7.90;3.97;;;;;;;;;;5070559;28;20053;-82
2022/12/19 13:24:38;;;;;;;6.70;3.80;;;;;;;;;;5071414;28;20542;-83
2022/12/19 13:27:19;;;;;;;11.18;4.88;;;;;;;;;;5069029;28;20136;-82
2022/12/19 13:30:03;;;;;;;10.15;4.60;;;;;;;;;;5068857;28;20164;-82
2022/12/19 13:32:52;;;;;;;7.32;3.63;;;;;;;;;;5052322;28;20057;-82
2022/12/19 13:35:19;;;;;;;8.45;4.20;;;;;;;;;;5071685;28;20542;-81
2022/12/19 13:38:05;;;;;;;8.30;3.90;;;;;;;;;;5069158;28;20103;-82
2022/12/19 13:40:59;;;;;;;11.45;4.82;;;;;;;;;;5059995;28;20057;-82
2022/12/19 13:43:46;;;;;;;8.15;3.90;;;;;;;;;;5053571;28;20148;-82
2022/12/19 13:46:19;;;;;;;7.55;3.80;;;;;;;;;;5070979;28;20063;-83
2022/12/19 13:48:47;;;;;;;12.57;4.40;;;;;;;;;;5066443;28;20060;-82
2022/12/19 13:51:13;;;;;;;8.95;4.63;;;;;;;;;;5068479;28;20060;-81
2022/12/19 13:53:40;;;;;;;7.50;4.20;;;;;;;;;;5068964;28;20072;-81
2022/12/19 13:56:13;;;;;;;9.32;4.40;;;;;;;;;;5068734;28;20522;-82
2022/12/19 13:58:57;;;;;;;8.10;4.22;;;;;;;;;;5051268;28;20134;-81
2022/12/19 14:01:26;;;;;;;8.23;4.40;;;;;;;;;;5073321;28;20061;-83
2022/12/19 14:03:54;;;;;;;8.45;4.40;;;;;;;;;;5049408;28;20063;-82
2022/12/19 14:06:23;;;;;;;9.27;4.05;;;;;;;;;;5057176;28;20049;-82
2022/12/19 14:08:51;;;;;;;11.70;4.65;;;;;;;;;;5068166;28;20088;-82
2022/12/19 14:11:40;;;;;;;8.27;4.28;;;;;;;;;;5068005;28;20053;-83
2022/12/19 14:17:13;;;;;;;7.53;3.90;;;;;;;;;;5057239;28;20627;-82
2022/12/19 14:19:58;;;;;;;11.85;4.68;;;;;;;;;;5066614;28;20057;-82
2022/12/19 14:22:44;;;;;;;8.63;4.20;;;;;;;;;;5064804;28;20055;-81
2022/12/19 14:25:10;;;;;;;7.97;4.40;;;;;;;;;;5045373;28;20140;-81
2022/12/19 14:28:00;;;;;;;7.72;4.22;;;;;;;;;;5054132;28;20060;-82
2022/12/19 14:30:50;;;;;;;8.93;4.38;;;;;;;;;;5051076;28;20099;-81
2022/12/19 14:33:19;;;;;;;7.82;4.32;;;;;;;;;;5069515;28;20061;-81
2022/12/19 14:36:05;;;;;;;7.38;3.70;;;;;;;;;;5066944;28;20053;-81
2022/12/19 14:38:46;;;;;;;8.98;4.30;;;;;;;;;;5060298;28;20167;-81
2022/12/19 14:44:40;;;;;;;7.00;3.63;;;;;;;;;;5059285;28;20089;-80
2022/12/19 14:47:35;;;;;;;6.78;3.60;;;;;;;;;;5051294;28;20061;-81
2022/12/19 14:50:29;;;;;;;8.50;4.10;;;;;;;;;;5061693;28;20049;-81
2022/12/19 14:53:17;;;;;;;7.80;3.50;;;;;;;;;;5067596;28;20052;-80
2022/12/19 14:56:05;;;;;;;7.20;3.67;;;;;;;;;;5066158;28;20668;-81
2022/12/19 14:58:53;;;;;;;7.53;3.53;;;;;;;;;;5067517;28;20502;-81
2022/12/19 15:01:24;;;;;;;7.65;3.53;;;;;;;;;;5065656;28;20061;-81
2022/12/19 15:03:56;;;;;;;6.88;3.60;;;;;;;;;;5064933;28;20119;-80
2022/12/19 15:06:44;;;;;;;8.88;4.15;;;;;;;;;;5066220;28;20064;-80
2022/12/19 15:09:34;;;;;;;7.75;3.45;;;;;;;;;;5066123;28;20569;-81